sensor_id;sensor_type;location;lat;lon;timestamp;pressure;altitude;pressure_sealevel;temperature;humidity
73692;BME280;61996;49.910;35.562;2024-02-21T00:00:51;100248.50;;;17.33;39.02
73692;BME280;61996;49.910;35.562;2024-02-21T00:03:54;100241.38;;;17.10;39.51
73692;BME280;61996;49.910;35.562;2024-02-21T00:06:57;100235.31;;;17.08;39.60
73692;BME280;61996;49.910;35.562;2024-02-21T00:10:01;100229.22;;;17.18;40.02
73692;BME280;61996;49.910;35.562;2024-02-21T00:13:04;100232.25;;;17.01;39.66
73692;BME280;61996;49.910;35.562;2024-02-21T00:16:07;100226.34;;;16.97;39.87
73692;BME280;61996;49.910;35.562;2024-02-21T00:19:12;100214.22;;;16.93;40.21
73692;BME280;61996;49.910;35.562;2024-02-21T00:22:16;100214.69;;;16.87;39.99
73692;BME280;61996;49.910;35.562;2024-02-21T00:25:20;100205.25;;;16.83;40.13
73692;BME280;61996;49.910;35.562;2024-02-21T00:28:23;100215.13;;;16.81;40.15
73692;BME280;61996;49.910;35.562;2024-02-21T00:31:26;100203.13;;;16.76;40.15
73692;BME280;61996;49.910;35.562;2024-02-21T00:34:29;100217.78;;;16.68;40.25
73692;BME280;61996;49.910;35.562;2024-02-21T00:37:32;100214.28;;;16.68;40.14
73692;BME280;61996;49.910;35.562;2024-02-21T00:40:37;100210.28;;;16.62;40.31
73692;BME280;61996;49.910;35.562;2024-02-21T00:43:40;100209.31;;;16.63;40.50
73692;BME280;61996;49.910;35.562;2024-02-21T00:46:43;100195.75;;;16.55;40.29
73692;BME280;61996;49.910;35.562;2024-02-21T00:49:45;100199.69;;;16.50;40.47
73692;BME280;61996;49.910;35.562;2024-02-21T00:52:48;100196.28;;;16.48;40.25
73692;BME280;61996;49.910;35.562;2024-02-21T00:55:53;100191.19;;;16.44;40.54
73692;BME280;61996;49.910;35.562;2024-02-21T00:58:58;100186.84;;;16.43;40.68
73692;BME280;61996;49.910;35.562;2024-02-21T01:02:01;100192.16;;;16.43;40.50
73692;BME280;61996;49.910;35.562;2024-02-21T01:05:04;100187.91;;;16.41;40.63
73692;BME280;61996;49.910;35.562;2024-02-21T01:08:07;100178.59;;;16.35;40.60
73692;BME280;61996;49.910;35.562;2024-02-21T01:11:12;100179.56;;;16.34;40.66
73692;BME280;61996;49.910;35.562;2024-02-21T01:14:14;100175.19;;;16.33;40.76
73692;BME280;61996;49.910;35.562;2024-02-21T01:17:17;100172.75;;;16.30;40.67
73692;BME280;61996;49.910;35.562;2024-02-21T01:20:20;100172.88;;;16.29;40.59
73692;BME280;61996;49.910;35.562;2024-02-21T01:23:23;100173.31;;;16.23;40.94
73692;BME280;61996;49.910;35.562;2024-02-21T01:26:27;100172.47;;;16.22;40.56
73692;BME280;61996;49.910;35.562;2024-02-21T01:29:30;100163.66;;;16.22;40.81
73692;BME280;61996;49.910;35.562;2024-02-21T01:32:33;100166.50;;;16.18;40.44
73692;BME280;61996;49.910;35.562;2024-02-21T01:35:36;100159.63;;;16.16;40.85
73692;BME280;61996;49.910;35.562;2024-02-21T01:38:39;100161.44;;;16.15;40.74
73692;BME280;61996;49.910;35.562;2024-02-21T01:41:43;100158.97;;;16.12;40.75
73692;BME280;61996;49.910;35.562;2024-02-21T01:44:46;100161.00;;;16.09;40.61
73692;BME280;61996;49.910;35.562;2024-02-21T01:47:49;100142.44;;;16.09;40.77
73692;BME280;61996;49.910;35.562;2024-02-21T01:50:53;100147.84;;;16.07;40.84
73692;BME280;61996;49.910;35.562;2024-02-21T01:53:57;100138.94;;;16.08;40.79
73692;BME280;61996;49.910;35.562;2024-02-21T01:57:02;100139.91;;;16.07;40.76
73692;BME280;61996;49.910;35.562;2024-02-21T02:00:06;100142.75;;;16.04;40.73
73692;BME280;61996;49.910;35.562;2024-02-21T02:03:10;100141.91;;;16.04;40.79
73692;BME280;61996;49.910;35.562;2024-02-21T02:06:19;100145.75;;;16.00;41.02
73692;BME280;61996;49.910;35.562;2024-02-21T02:09:22;100136.84;;;16.01;41.08
73692;BME280;61996;49.910;35.562;2024-02-21T02:12:26;100137.25;;;15.95;40.72
73692;BME280;61996;49.910;35.562;2024-02-21T02:15:37;100137.03;;;15.98;41.03
73692;BME280;61996;49.910;35.562;2024-02-21T02:18:40;100140.09;;;15.92;40.73
73692;BME280;61996;49.910;35.562;2024-02-21T02:21:46;100136.72;;;15.89;40.99
73692;BME280;61996;49.910;35.562;2024-02-21T02:24:50;100127.06;;;15.88;41.05
73692;BME280;61996;49.910;35.562;2024-02-21T02:27:53;100133.47;;;15.86;40.98
73692;BME280;61996;49.910;35.562;2024-02-21T02:30:56;100120.50;;;15.81;40.90
73692;BME280;61996;49.910;35.562;2024-02-21T02:33:59;100127.31;;;15.85;41.13
73692;BME280;61996;49.910;35.562;2024-02-21T02:37:02;100129.19;;;15.83;40.93
73692;BME280;61996;49.910;35.562;2024-02-21T02:40:07;100139.91;;;15.82;40.96
73692;BME280;61996;49.910;35.562;2024-02-21T02:43:10;100132.28;;;15.77;40.86
73692;BME280;61996;49.910;35.562;2024-02-21T02:46:13;100134.91;;;15.77;41.04
73692;BME280;61996;49.910;35.562;2024-02-21T02:49:16;100141.06;;;15.78;40.88
73692;BME280;61996;49.910;35.562;2024-02-21T02:52:20;100140.44;;;15.74;40.95
73692;BME280;61996;49.910;35.562;2024-02-21T02:55:24;100144.91;;;15.74;41.02
73692;BME280;61996;49.910;35.562;2024-02-21T02:58:28;100145.22;;;15.69;40.86
73692;BME280;61996;49.910;35.562;2024-02-21T03:01:33;100146.91;;;15.70;41.14
73692;BME280;61996;49.910;35.562;2024-02-21T03:04:39;100140.88;;;15.68;40.93
73692;BME280;61996;49.910;35.562;2024-02-21T03:07:42;100137.25;;;15.69;40.98
73692;BME280;61996;49.910;35.562;2024-02-21T03:10:46;100143.63;;;15.67;40.96
73692;BME280;61996;49.910;35.562;2024-02-21T03:13:49;100134.94;;;15.65;41.08
73692;BME280;61996;49.910;35.562;2024-02-21T03:16:52;100136.91;;;15.61;41.10
73692;BME280;61996;49.910;35.562;2024-02-21T03:19:55;100131.84;;;15.58;41.24
73692;BME280;61996;49.910;35.562;2024-02-21T03:22:58;100128.22;;;15.59;41.05
73692;BME280;61996;49.910;35.562;2024-02-21T03:26:03;100133.63;;;15.57;41.05
73692;BME280;61996;49.910;35.562;2024-02-21T03:29:06;100124.06;;;15.55;41.07
73692;BME280;61996;49.910;35.562;2024-02-21T03:32:09;100125.88;;;15.54;41.09
73692;BME280;61996;49.910;35.562;2024-02-21T03:35:13;100118.88;;;15.53;41.01
73692;BME280;61996;49.910;35.562;2024-02-21T03:38:16;100114.53;;;15.52;40.99
73692;BME280;61996;49.910;35.562;2024-02-21T03:41:20;100119.09;;;15.50;41.09
73692;BME280;61996;49.910;35.562;2024-02-21T03:44:24;100116.66;;;15.60;41.31
73692;BME280;61996;49.910;35.562;2024-02-21T03:47:26;100118.41;;;15.74;41.70
73692;BME280;61996;49.910;35.562;2024-02-21T03:50:30;100121.13;;;15.85;41.62
73692;BME280;61996;49.910;35.562;2024-02-21T03:53:33;100119.66;;;15.94;41.40
73692;BME280;61996;49.910;35.562;2024-02-21T03:56:38;100121.31;;;16.07;41.38
73692;BME280;61996;49.910;35.562;2024-02-21T03:59:41;100105.81;;;16.14;40.95
73692;BME280;61996;49.910;35.562;2024-02-21T04:02:45;100102.16;;;16.28;40.00
73692;BME280;61996;49.910;35.562;2024-02-21T04:05:48;100100.97;;;16.32;40.61
73692;BME280;61996;49.910;35.562;2024-02-21T04:08:52;100098.72;;;16.38;39.73
73692;BME280;61996;49.910;35.562;2024-02-21T04:11:56;100101.66;;;16.47;39.84
73692;BME280;61996;49.910;35.562;2024-02-21T04:14:59;100105.28;;;16.45;39.80
73692;BME280;61996;49.910;35.562;2024-02-21T04:18:02;100102.19;;;16.52;39.69
73692;BME280;61996;49.910;35.562;2024-02-21T04:21:05;100100.16;;;16.55;39.96
73692;BME280;61996;49.910;35.562;2024-02-21T04:24:08;100098.97;;;16.59;39.72
73692;BME280;61996;49.910;35.562;2024-02-21T04:27:12;100103.53;;;16.57;39.59
73692;BME280;61996;49.910;35.562;2024-02-21T04:30:15;100102.34;;;16.61;39.70
73692;BME280;61996;49.910;35.562;2024-02-21T04:33:18;100098.97;;;16.59;40.86
73692;BME280;61996;49.910;35.562;2024-02-21T04:36:21;100093.25;;;16.53;41.09
73692;BME280;61996;49.910;35.562;2024-02-21T04:39:25;100099.75;;;16.49;41.01
73692;BME280;61996;49.910;35.562;2024-02-21T04:42:29;100103.34;;;16.48;40.92
73692;BME280;61996;49.910;35.562;2024-02-21T04:45:33;100108.91;;;16.44;40.93
73692;BME280;61996;49.910;35.562;2024-02-21T04:48:36;100108.63;;;16.36;40.61
73692;BME280;61996;49.910;35.562;2024-02-21T04:51:39;100107.00;;;16.34;40.03
73692;BME280;61996;49.910;35.562;2024-02-21T04:54:42;100099.16;;;16.32;39.96
73692;BME280;61996;49.910;35.562;2024-02-21T04:57:46;100112.78;;;16.28;40.64
73692;BME280;61996;49.910;35.562;2024-02-21T05:00:49;100111.41;;;16.22;40.81
73692;BME280;61996;49.910;35.562;2024-02-21T05:03:53;100115.59;;;16.13;40.42
73692;BME280;61996;49.910;35.562;2024-02-21T05:06:56;100103.91;;;16.03;40.36
73692;BME280;61996;49.910;35.562;2024-02-21T05:09:59;100111.56;;;15.95;40.46
73692;BME280;61996;49.910;35.562;2024-02-21T05:13:03;100105.63;;;15.92;40.36
73692;BME280;61996;49.910;35.562;2024-02-21T05:16:06;100112.13;;;15.87;40.48
73692;BME280;61996;49.910;35.562;2024-02-21T05:19:09;100107.56;;;15.89;40.89
73692;BME280;61996;49.910;35.562;2024-02-21T05:22:12;100111.47;;;15.84;40.50
73692;BME280;61996;49.910;35.562;2024-02-21T05:25:15;100109.16;;;15.79;40.36
73692;BME280;61996;49.910;35.562;2024-02-21T05:28:19;100103.22;;;15.76;40.52
73692;BME280;61996;49.910;35.562;2024-02-21T05:31:22;100106.94;;;15.73;40.63
73692;BME280;61996;49.910;35.562;2024-02-21T05:34:26;100110.56;;;15.72;40.81
73692;BME280;61996;49.910;35.562;2024-02-21T05:37:29;100099.19;;;15.70;41.01
73692;BME280;61996;49.910;35.562;2024-02-21T05:40:32;100096.75;;;15.67;41.06
73692;BME280;61996;49.910;35.562;2024-02-21T05:43:36;100102.25;;;15.64;40.92
73692;BME280;61996;49.910;35.562;2024-02-21T05:46:39;100105.09;;;15.61;41.21
73692;BME280;61996;49.910;35.562;2024-02-21T05:49:42;100107.97;;;15.58;41.06
73692;BME280;61996;49.910;35.562;2024-02-21T05:52:45;100102.97;;;15.53;41.09
73692;BME280;61996;49.910;35.562;2024-02-21T05:55:48;100104.91;;;15.51;41.04
73692;BME280;61996;49.910;35.562;2024-02-21T05:58:52;100107.56;;;15.51;41.03
73692;BME280;61996;49.910;35.562;2024-02-21T06:01:56;100104.25;;;15.48;40.89
73692;BME280;61996;49.910;35.562;2024-02-21T06:05:00;100107.97;;;15.45;41.14
73692;BME280;61996;49.910;35.562;2024-02-21T06:08:03;100099.19;;;15.45;40.98
73692;BME280;61996;49.910;35.562;2024-02-21T06:11:06;100101.06;;;15.43;41.20
73692;BME280;61996;49.910;35.562;2024-02-21T06:14:10;100109.22;;;15.40;41.04
73692;BME280;61996;49.910;35.562;2024-02-21T06:17:14;100098.94;;;15.35;41.09
73692;BME280;61996;49.910;35.562;2024-02-21T06:20:16;100095.31;;;15.36;41.24
73692;BME280;61996;49.910;35.562;2024-02-21T06:23:19;100102.44;;;15.35;41.04
73692;BME280;61996;49.910;35.562;2024-02-21T06:26:22;100100.00;;;15.32;41.24
73692;BME280;61996;49.910;35.562;2024-02-21T06:29:26;100103.72;;;15.30;41.20
73692;BME280;61996;49.910;35.562;2024-02-21T06:32:29;100102.84;;;15.29;41.31
73692;BME280;61996;49.910;35.562;2024-02-21T06:35:32;100101.16;;;15.28;41.17
73692;BME280;61996;49.910;35.562;2024-02-21T06:38:35;100087.16;;;15.26;41.18
73692;BME280;61996;49.910;35.562;2024-02-21T06:41:38;100091.75;;;15.24;41.13
73692;BME280;61996;49.910;35.562;2024-02-21T06:44:43;100090.03;;;15.36;40.92
73692;BME280;61996;49.910;35.562;2024-02-21T06:47:46;100086.03;;;15.30;41.09
73692;BME280;61996;49.910;35.562;2024-02-21T06:50:49;100096.19;;;15.36;41.07
73692;BME280;61996;49.910;35.562;2024-02-21T06:53:52;100090.38;;;15.44;40.62
73692;BME280;61996;49.910;35.562;2024-02-21T06:56:55;100094.38;;;15.50;40.89
73692;BME280;61996;49.910;35.562;2024-02-21T06:59:59;100093.00;;;15.57;40.34
73692;BME280;61996;49.910;35.562;2024-02-21T07:03:03;100094.41;;;15.62;40.31
73692;BME280;61996;49.910;35.562;2024-02-21T07:06:05;100095.50;;;15.73;40.10
73692;BME280;61996;49.910;35.562;2024-02-21T07:09:09;100102.13;;;15.78;40.03
73692;BME280;61996;49.910;35.562;2024-02-21T07:12:11;100090.91;;;15.87;39.90
73692;BME280;61996;49.910;35.562;2024-02-21T07:15:16;100099.28;;;15.94;40.09
73692;BME280;61996;49.910;35.562;2024-02-21T07:18:19;100105.06;;;15.99;39.94
73692;BME280;61996;49.910;35.562;2024-02-21T07:21:22;100104.66;;;16.05;39.78
73692;BME280;61996;49.910;35.562;2024-02-21T07:24:25;100108.69;;;16.11;39.89
73692;BME280;61996;49.910;35.562;2024-02-21T07:27:28;100110.28;;;16.13;39.90
73692;BME280;61996;49.910;35.562;2024-02-21T07:30:34;100106.44;;;16.17;39.68
73692;BME280;61996;49.910;35.562;2024-02-21T07:33:37;100115.13;;;16.20;39.83
73692;BME280;61996;49.910;35.562;2024-02-21T07:36:41;100105.16;;;16.23;39.74
73692;BME280;61996;49.910;35.562;2024-02-21T07:39:44;100116.28;;;16.28;39.78
73692;BME280;61996;49.910;35.562;2024-02-21T07:42:47;100116.16;;;16.30;39.54
73692;BME280;61996;49.910;35.562;2024-02-21T07:45:54;100108.72;;;16.35;39.57
73692;BME280;61996;49.910;35.562;2024-02-21T07:48:56;100110.31;;;16.37;39.64
73692;BME280;61996;49.910;35.562;2024-02-21T07:52:00;100118.03;;;16.40;39.71
73692;BME280;61996;49.910;35.562;2024-02-21T07:55:03;100112.50;;;16.43;39.56
73692;BME280;61996;49.910;35.562;2024-02-21T07:58:06;100115.28;;;16.42;39.92
73692;BME280;61996;49.910;35.562;2024-02-21T08:01:10;100122.16;;;16.44;39.57
73692;BME280;61996;49.910;35.562;2024-02-21T08:04:13;100123.66;;;16.49;39.34
73692;BME280;61996;49.910;35.562;2024-02-21T08:07:16;100121.00;;;16.49;39.57
73692;BME280;61996;49.910;35.562;2024-02-21T08:10:19;100132.03;;;16.55;39.55
73692;BME280;61996;49.910;35.562;2024-02-21T08:13:22;100110.03;;;16.53;39.37
73692;BME280;61996;49.910;35.562;2024-02-21T08:16:27;100118.75;;;16.55;39.43
73692;BME280;61996;49.910;35.562;2024-02-21T08:19:30;100107.88;;;16.58;39.30
73692;BME280;61996;49.910;35.562;2024-02-21T08:22:33;100105.13;;;16.60;39.28
73692;BME280;61996;49.910;35.562;2024-02-21T08:25:36;100108.63;;;16.60;39.48
73692;BME280;61996;49.910;35.562;2024-02-21T08:28:39;100114.56;;;16.64;39.28
73692;BME280;61996;49.910;35.562;2024-02-21T08:31:43;100109.25;;;16.64;39.49
73692;BME280;61996;49.910;35.562;2024-02-21T08:34:46;100109.00;;;16.67;39.22
73692;BME280;61996;49.910;35.562;2024-02-21T08:37:49;100110.66;;;16.69;39.24
73692;BME280;61996;49.910;35.562;2024-02-21T08:40:52;100111.53;;;16.68;39.24
73692;BME280;61996;49.910;35.562;2024-02-21T08:43:55;100117.66;;;16.70;39.43
73692;BME280;61996;49.910;35.562;2024-02-21T08:46:59;100118.25;;;16.74;39.25
73692;BME280;61996;49.910;35.562;2024-02-21T08:50:07;100120.78;;;16.76;39.22
73692;BME280;61996;49.910;35.562;2024-02-21T08:53:27;100119.63;;;16.80;39.37
73692;BME280;61996;49.910;35.562;2024-02-21T08:56:30;100118.88;;;16.78;39.20
73692;BME280;61996;49.910;35.562;2024-02-21T08:59:33;100126.63;;;16.81;39.26
73692;BME280;61996;49.910;35.562;2024-02-21T09:02:39;100112.38;;;16.82;39.51
73692;BME280;61996;49.910;35.562;2024-02-21T09:05:42;100101.88;;;16.80;39.28
73692;BME280;61996;49.910;35.562;2024-02-21T09:08:45;100106.00;;;16.84;39.28
73692;BME280;61996;49.910;35.562;2024-02-21T09:11:48;100110.34;;;16.85;39.08
73692;BME280;61996;49.910;35.562;2024-02-21T09:14:51;100105.75;;;16.87;39.30
73692;BME280;61996;49.910;35.562;2024-02-21T09:17:55;100097.56;;;16.90;39.05
73692;BME280;61996;49.910;35.562;2024-02-21T09:20:58;100094.91;;;16.90;39.21
73692;BME280;61996;49.910;35.562;2024-02-21T09:24:01;100095.41;;;16.95;39.75
73692;BME280;61996;49.910;35.562;2024-02-21T09:27:04;100093.59;;;16.96;39.42
73692;BME280;61996;49.910;35.562;2024-02-21T09:30:08;100095.31;;;16.97;39.77
73692;BME280;61996;49.910;35.562;2024-02-21T09:33:13;100093.50;;;16.97;39.21
73692;BME280;61996;49.910;35.562;2024-02-21T09:36:31;100097.09;;;16.96;39.07
73692;BME280;61996;49.910;35.562;2024-02-21T09:39:33;100083.59;;;16.99;39.06
73692;BME280;61996;49.910;35.562;2024-02-21T09:42:37;100080.69;;;17.03;39.36
73692;BME280;61996;49.910;35.562;2024-02-21T09:45:40;100080.69;;;17.03;39.43
73692;BME280;61996;49.910;35.562;2024-02-21T09:48:54;100078.53;;;17.08;39.23
73692;BME280;61996;49.910;35.562;2024-02-21T09:52:02;100079.38;;;17.08;39.11
73692;BME280;61996;49.910;35.562;2024-02-21T09:55:05;100083.84;;;17.08;39.28
73692;BME280;61996;49.910;35.562;2024-02-21T09:58:09;100069.97;;;17.04;39.24
73692;BME280;61996;49.910;35.562;2024-02-21T10:01:13;100078.41;;;17.09;39.27
73692;BME280;61996;49.910;35.562;2024-02-21T10:04:35;100074.78;;;17.10;39.43
73692;BME280;61996;49.910;35.562;2024-02-21T10:07:38;100076.25;;;17.14;39.28
73692;BME280;61996;49.910;35.562;2024-02-21T10:10:42;100072.03;;;17.12;39.08
73692;BME280;61996;49.910;35.562;2024-02-21T10:13:45;100069.25;;;17.13;38.98
73692;BME280;61996;49.910;35.562;2024-02-21T10:16:55;100063.81;;;17.15;39.06
73692;BME280;61996;49.910;35.562;2024-02-21T10:20:07;100068.03;;;17.17;39.10
73692;BME280;61996;49.910;35.562;2024-02-21T10:23:13;100067.19;;;17.17;39.11
73692;BME280;61996;49.910;35.562;2024-02-21T10:26:16;100053.81;;;17.18;39.13
73692;BME280;61996;49.910;35.562;2024-02-21T10:29:19;100060.06;;;17.17;38.96
73692;BME280;61996;49.910;35.562;2024-02-21T10:32:22;100055.97;;;17.24;38.94
73692;BME280;61996;49.910;35.562;2024-02-21T10:35:31;100058.03;;;17.21;39.03
73692;BME280;61996;49.910;35.562;2024-02-21T10:38:34;100059.00;;;17.20;39.60
73692;BME280;61996;49.910;35.562;2024-02-21T10:41:37;100052.59;;;17.22;39.08
73692;BME280;61996;49.910;35.562;2024-02-21T10:44:41;100053.56;;;17.21;39.06
73692;BME280;61996;49.910;35.562;2024-02-21T10:47:45;100044.75;;;17.21;39.02
73692;BME280;61996;49.910;35.562;2024-02-21T10:50:56;100050.66;;;17.24;39.36
73692;BME280;61996;49.910;35.562;2024-02-21T10:54:07;100042.47;;;17.27;39.64
73692;BME280;61996;49.910;35.562;2024-02-21T10:57:14;100043.44;;;17.26;39.15
73692;BME280;61996;49.910;35.562;2024-02-21T11:00:18;100041.50;;;17.29;39.11
73692;BME280;61996;49.910;35.562;2024-02-21T11:03:21;100031.69;;;17.29;39.18
73692;BME280;61996;49.910;35.562;2024-02-21T11:06:25;100029.28;;;17.26;39.13
73692;BME280;61996;49.910;35.562;2024-02-21T11:09:30;100027.47;;;17.26;39.07
73692;BME280;61996;49.910;35.562;2024-02-21T11:12:35;100030.75;;;17.19;39.05
73692;BME280;61996;49.910;35.562;2024-02-21T11:15:37;100017.44;;;17.19;39.26
73692;BME280;61996;49.910;35.562;2024-02-21T11:18:40;100009.31;;;17.09;39.35
73692;BME280;61996;49.910;35.562;2024-02-21T11:21:45;100007.97;;;17.04;39.51
73692;BME280;61996;49.910;35.562;2024-02-21T11:24:49;100013.41;;;17.02;39.50
73692;BME280;61996;49.910;35.562;2024-02-21T11:27:58;100008.69;;;16.94;39.24
73692;BME280;61996;49.910;35.562;2024-02-21T11:31:09;100006.28;;;16.91;39.63
73692;BME280;61996;49.910;35.562;2024-02-21T11:34:12;100009.16;;;16.88;39.68
73692;BME280;61996;49.910;35.562;2024-02-21T11:37:16;100000.81;;;16.82;39.66
73692;BME280;61996;49.910;35.562;2024-02-21T11:40:19;99994.06;;;16.78;39.69
73692;BME280;61996;49.910;35.562;2024-02-21T11:43:22;99997.03;;;16.73;39.79
73692;BME280;61996;49.910;35.562;2024-02-21T11:46:26;99996.50;;;16.68;40.43
73692;BME280;61996;49.910;35.562;2024-02-21T11:49:29;99999.41;;;16.65;39.80
73692;BME280;61996;49.910;35.562;2024-02-21T11:52:34;100000.13;;;16.56;39.99
73692;BME280;61996;49.910;35.562;2024-02-21T11:55:36;99998.63;;;16.52;40.11
73692;BME280;61996;49.910;35.562;2024-02-21T11:58:39;100002.47;;;16.48;40.35
73692;BME280;61996;49.910;35.562;2024-02-21T12:01:44;100001.88;;;16.44;40.17
73692;BME280;61996;49.910;35.562;2024-02-21T12:04:47;99989.88;;;16.38;40.26
73692;BME280;61996;49.910;35.562;2024-02-21T12:07:52;99992.03;;;16.33;40.24
73692;BME280;61996;49.910;35.562;2024-02-21T12:10:55;99989.38;;;16.33;40.38
73692;BME280;61996;49.910;35.562;2024-02-21T12:13:58;99997.81;;;16.27;40.36
73692;BME280;61996;49.910;35.562;2024-02-21T12:17:02;99990.72;;;16.28;40.41
73692;BME280;61996;49.910;35.562;2024-02-21T12:20:06;99982.75;;;16.28;40.51
73692;BME280;61996;49.910;35.562;2024-02-21T12:23:13;99996.09;;;16.26;40.18
73692;BME280;61996;49.910;35.562;2024-02-21T12:26:16;99986.69;;;16.22;40.47
73692;BME280;61996;49.910;35.562;2024-02-21T12:29:20;99986.91;;;16.19;40.48
73692;BME280;61996;49.910;35.562;2024-02-21T12:32:23;99996.78;;;16.17;40.76
73692;BME280;61996;49.910;35.562;2024-02-21T12:35:26;99976.59;;;16.27;40.33
73692;BME280;61996;49.910;35.562;2024-02-21T12:38:30;99991.25;;;16.44;40.49
73692;BME280;61996;49.910;35.562;2024-02-21T12:41:33;99991.63;;;16.27;40.31
73692;BME280;61996;49.910;35.562;2024-02-21T12:44:39;99980.31;;;16.01;40.35
73692;BME280;61996;49.910;35.562;2024-02-21T12:47:44;99985.66;;;16.12;40.75
73692;BME280;61996;49.910;35.562;2024-02-21T12:50:47;99992.91;;;16.10;40.74
73692;BME280;61996;49.910;35.562;2024-02-21T12:53:52;99987.59;;;16.10;40.56
73692;BME280;61996;49.910;35.562;2024-02-21T12:56:55;99986.34;;;16.03;40.80
73692;BME280;61996;49.910;35.562;2024-02-21T12:59:58;99981.03;;;16.03;40.63
73692;BME280;61996;49.910;35.562;2024-02-21T13:03:01;99980.41;;;15.99;40.86
73692;BME280;61996;49.910;35.562;2024-02-21T13:06:04;99978.66;;;16.11;40.62
73692;BME280;61996;49.910;35.562;2024-02-21T13:09:09;99978.72;;;16.22;40.45
73692;BME280;61996;49.910;35.562;2024-02-21T13:12:13;99986.00;;;16.31;40.23
73692;BME280;61996;49.910;35.562;2024-02-21T13:15:16;99972.94;;;16.52;40.38
73692;BME280;61996;49.910;35.562;2024-02-21T13:18:19;99970.00;;;16.44;40.41
73692;BME280;61996;49.910;35.562;2024-02-21T13:21:22;99974.88;;;16.50;40.38
73692;BME280;61996;49.910;35.562;2024-02-21T13:24:26;99972.47;;;16.58;40.13
73692;BME280;61996;49.910;35.562;2024-02-21T13:27:29;99962.34;;;16.63;40.12
73692;BME280;61996;49.910;35.562;2024-02-21T13:30:32;99963.72;;;16.69;39.87
73692;BME280;61996;49.910;35.562;2024-02-21T13:33:36;99961.56;;;16.74;39.83
73692;BME280;61996;49.910;35.562;2024-02-21T13:36:40;99964.00;;;16.77;40.33
73692;BME280;61996;49.910;35.562;2024-02-21T13:39:44;99965.44;;;16.81;39.89
73692;BME280;61996;49.910;35.562;2024-02-21T13:42:48;99973.91;;;16.86;39.75
73692;BME280;61996;49.910;35.562;2024-02-21T13:45:55;99975.25;;;17.03;39.55
73692;BME280;61996;49.910;35.562;2024-02-21T13:49:02;99960.03;;;17.16;39.55
73692;BME280;61996;49.910;35.562;2024-02-21T13:52:06;99971.06;;;17.12;39.91
73692;BME280;61996;49.910;35.562;2024-02-21T13:55:12;99967.41;;;17.02;39.91
73692;BME280;61996;49.910;35.562;2024-02-21T13:58:16;99975.41;;;17.13;40.10
73692;BME280;61996;49.910;35.562;2024-02-21T14:01:19;99968.63;;;17.09;39.86
73692;BME280;61996;49.910;35.562;2024-02-21T14:04:22;99961.75;;;17.06;39.66
73692;BME280;61996;49.910;35.562;2024-02-21T14:07:25;99972.75;;;17.13;39.62
73692;BME280;61996;49.910;35.562;2024-02-21T14:10:30;99968.28;;;17.13;39.54
73692;BME280;61996;49.910;35.562;2024-02-21T14:13:33;99969.84;;;17.16;39.68
73692;BME280;61996;49.910;35.562;2024-02-21T14:16:36;99966.56;;;17.23;39.48
73692;BME280;61996;49.910;35.562;2024-02-21T14:19:38;99972.25;;;17.19;39.67
73692;BME280;61996;49.910;35.562;2024-02-21T14:22:41;99973.09;;;17.19;39.38
73692;BME280;61996;49.910;35.562;2024-02-21T14:25:46;99968.63;;;17.20;39.51
73692;BME280;61996;49.910;35.562;2024-02-21T14:28:49;99972.84;;;17.22;39.56
73692;BME280;61996;49.910;35.562;2024-02-21T14:31:52;99958.84;;;17.20;39.54
73692;BME280;61996;49.910;35.562;2024-02-21T14:34:55;99963.91;;;17.23;39.57
73692;BME280;61996;49.910;35.562;2024-02-21T14:38:00;99962.84;;;17.26;39.46
73692;BME280;61996;49.910;35.562;2024-02-21T14:41:04;99958.25;;;17.28;39.56
73692;BME280;61996;49.910;35.562;2024-02-21T14:44:07;99950.28;;;17.28;39.41
73692;BME280;61996;49.910;35.562;2024-02-21T14:47:11;99954.84;;;17.37;39.27
73692;BME280;61996;49.910;35.562;2024-02-21T14:50:14;99944.47;;;17.45;39.65
73692;BME280;61996;49.910;35.562;2024-02-21T14:53:17;99949.06;;;17.43;39.65
73692;BME280;61996;49.910;35.562;2024-02-21T14:56:22;99950.03;;;17.53;39.66
73692;BME280;61996;49.910;35.562;2024-02-21T14:59:25;99950.72;;;17.67;39.11
73692;BME280;61996;49.910;35.562;2024-02-21T15:02:35;99956.41;;;17.51;39.14
73692;BME280;61996;49.910;35.562;2024-02-21T15:05:38;99959.09;;;17.40;39.18
73692;BME280;61996;49.910;35.562;2024-02-21T15:08:41;99958.25;;;17.39;39.61
73692;BME280;61996;49.910;35.562;2024-02-21T15:11:45;99960.44;;;17.34;39.62
73692;BME280;61996;49.910;35.562;2024-02-21T15:14:48;99961.75;;;17.29;39.43
73692;BME280;61996;49.910;35.562;2024-02-21T15:17:51;99956.78;;;17.24;39.71
73692;BME280;61996;49.910;35.562;2024-02-21T15:20:54;99964.75;;;17.24;39.48
73692;BME280;61996;49.910;35.562;2024-02-21T15:23:57;99959.94;;;17.18;39.48
73692;BME280;61996;49.910;35.562;2024-02-21T15:27:04;99963.09;;;17.12;39.40
73692;BME280;61996;49.910;35.562;2024-02-21T15:30:07;99965.97;;;17.09;39.62
73692;BME280;61996;49.910;35.562;2024-02-21T15:33:10;99968.25;;;17.02;39.67
73692;BME280;61996;49.910;35.562;2024-02-21T15:36:13;99974.28;;;16.93;39.74
73692;BME280;61996;49.910;35.562;2024-02-21T15:39:17;99969.78;;;16.82;39.98
73692;BME280;61996;49.910;35.562;2024-02-21T15:42:21;99971.22;;;16.75;39.95
73692;BME280;61996;49.910;35.562;2024-02-21T15:45:24;99972.44;;;16.71;40.21
73692;BME280;61996;49.910;35.562;2024-02-21T15:48:27;99965.84;;;16.64;40.31
73692;BME280;61996;49.910;35.562;2024-02-21T15:51:30;99966.69;;;16.64;40.19